createdAt,value
2019-04-26T00:00:25.650Z,71.20
2019-04-26T00:03:01.980Z,71.30
2019-04-26T00:05:35.229Z,71.50
2019-04-26T00:08:07.198Z,71.60
2019-04-26T00:11:18.654Z,71.90
2019-04-26T00:14:26.648Z,72.00
2019-04-26T00:17:27.932Z,72.10
2019-04-26T00:20:00.157Z,72.30
2019-04-26T00:22:32.014Z,72.30
2019-04-26T00:25:03.854Z,72.60
2019-04-26T00:27:35.643Z,72.80
2019-04-26T00:30:07.768Z,73.10
2019-04-26T00:32:39.622Z,73.30
2019-04-26T00:35:12.661Z,73.50
2019-04-26T00:37:44.988Z,73.70
2019-04-26T00:40:16.906Z,73.90
2019-04-26T00:42:49.271Z,74.00
2019-04-26T00:45:22.889Z,74.20
2019-04-26T00:47:55.324Z,74.30
2019-04-26T00:50:27.438Z,74.40
2019-04-26T00:53:00.764Z,74.60
2019-04-26T00:55:35.114Z,74.80
2019-04-26T00:58:07.604Z,74.70
2019-04-26T01:00:39.407Z,74.80
2019-04-26T01:03:11.333Z,75.10
2019-04-26T01:05:43.047Z,75.10
2019-04-26T01:08:15.782Z,75.30
2019-04-26T01:10:47.917Z,75.50
2019-04-26T01:13:19.973Z,75.60
2019-04-26T01:15:51.693Z,75.70
2019-04-26T01:18:24.372Z,75.90
2019-04-26T01:20:59.027Z,76.00
2019-04-26T01:23:33.432Z,76.20
2019-04-26T01:26:11.547Z,76.30
2019-04-26T01:28:53.546Z,76.40
2019-04-26T01:31:28.189Z,76.70
2019-04-26T01:33:59.954Z,77.00
2019-04-26T01:36:32.915Z,77.10
2019-04-26T01:39:17.587Z,77.20
2019-04-26T01:41:57.742Z,77.30
2019-04-26T01:44:53.346Z,77.50
2019-04-26T01:47:26.230Z,77.70
2019-04-26T01:49:58.313Z,77.90
2019-04-26T01:52:30.060Z,78.00
2019-04-26T01:55:02.762Z,78.20
2019-04-26T01:57:34.714Z,78.40
2019-04-26T02:00:27.488Z,78.40
2019-04-26T02:03:03.399Z,78.60
2019-04-26T02:05:35.630Z,78.90
2019-04-26T02:08:07.466Z,79.00
2019-04-26T02:10:39.438Z,78.90
2019-04-26T02:13:11.102Z,79.00
2019-04-26T02:15:42.976Z,79.30
2019-04-26T02:18:14.669Z,79.50
2019-04-26T02:21:03.730Z,79.60
2019-04-26T02:23:48.430Z,79.60
2019-04-26T02:26:38.389Z,79.60
2019-04-26T02:29:13.768Z,79.80
2019-04-26T02:31:48.458Z,80.00
2019-04-26T02:34:20.311Z,80.20
2019-04-26T02:36:58.388Z,80.40
2019-04-26T02:39:33.414Z,80.40
2019-04-26T02:42:07.690Z,80.50
2019-04-26T02:44:59.173Z,80.60
2019-04-26T02:47:52.856Z,80.70
2019-04-26T02:50:41.825Z,80.80
2019-04-26T02:53:33.670Z,80.90
2019-04-26T02:56:40.146Z,81.10
2019-04-26T02:59:44.281Z,81.20
2019-04-26T03:02:25.866Z,81.50
2019-04-26T03:05:05.373Z,81.60
2019-04-26T03:07:53.665Z,81.80
2019-04-26T03:10:36.230Z,81.80
2019-04-26T03:13:12.264Z,81.90
2019-04-26T03:15:57.673Z,82.10
2019-04-26T03:18:55.578Z,82.20
2019-04-26T03:21:57.268Z,82.20
2019-04-26T03:24:37.193Z,82.40
2019-04-26T03:27:43.507Z,82.50
2019-04-26T03:30:41.458Z,82.80
2019-04-26T03:33:43.066Z,82.80
2019-04-26T03:36:43.961Z,82.90
2019-04-26T03:39:36.271Z,82.80
2019-04-26T03:42:29.656Z,83.00
2019-04-26T03:45:32.994Z,82.90
2019-04-26T03:48:26.050Z,82.80
2019-04-26T03:51:08.149Z,82.80
2019-04-26T03:53:53.927Z,82.90
2019-04-26T03:57:01.743Z,82.80
2019-04-26T04:00:03.797Z,82.80
2019-04-26T04:03:21.902Z,82.90
2019-04-26T04:05:57.826Z,82.80
2019-04-26T04:08:46.014Z,82.80
2019-04-26T04:11:21.535Z,82.70
2019-04-26T04:14:23.957Z,82.60
2019-04-26T04:17:22.174Z,82.60
2019-04-26T04:20:42.949Z,82.70
2019-04-26T04:23:48.391Z,82.60
2019-04-26T04:26:25.899Z,82.50
2019-04-26T04:29:42.178Z,82.40
2019-04-26T04:32:14.663Z,82.30
2019-04-26T04:34:49.677Z,82.20
2019-04-26T04:37:24.427Z,82.10
2019-04-26T04:40:13.910Z,82.00
2019-04-26T04:43:30.732Z,81.80
2019-04-26T04:46:54.196Z,81.80
2019-04-26T04:49:37.545Z,81.60
2019-04-26T04:52:29.347Z,81.50
2019-04-26T04:55:08.995Z,81.30
2019-04-26T04:58:08.197Z,81.20
2019-04-26T05:01:21.765Z,81.00
2019-04-26T05:04:03.465Z,80.70
2019-04-26T05:07:27.358Z,80.50
2019-04-26T05:10:12.882Z,81.10
2019-04-26T05:13:07.986Z,80.20
2019-04-26T05:16:16.264Z,79.90
2019-04-26T05:19:33.122Z,79.70
2019-04-26T05:22:37.128Z,79.60
2019-04-26T05:25:57.754Z,79.30
2019-04-26T05:28:56.466Z,79.10
2019-04-26T05:31:50.008Z,78.60
2019-04-26T05:34:49.234Z,78.50
2019-04-26T05:37:39.195Z,78.20
2019-04-26T05:40:28.036Z,77.90
2019-04-26T05:43:30.521Z,77.70
2019-04-26T05:46:35.064Z,77.30
2019-04-26T05:50:08.849Z,76.90
2019-04-26T05:53:55.028Z,76.70
2019-04-26T05:57:06.557Z,76.90
2019-04-26T06:00:24.100Z,75.50
2019-04-26T06:03:26.185Z,75.10
2019-04-26T06:06:24.744Z,74.30
2019-04-26T06:09:31.918Z,73.50
2019-04-26T06:12:16.243Z,72.60
2019-04-26T06:15:45.230Z,71.80
2019-04-26T06:18:46.424Z,69.70
2019-04-26T06:21:54.173Z,63.30
2019-04-26T06:24:42.798Z,60.60
2019-04-26T06:27:56.184Z,58.90
2019-04-26T06:30:44.990Z,56.80
2019-04-26T06:33:24.728Z,53.20
2019-04-26T06:36:00.348Z,50.00
2019-04-26T06:39:15.755Z,48.40
2019-04-26T06:42:37.610Z,47.00
2019-04-26T06:45:52.169Z,45.60
2019-04-26T06:49:05.689Z,44.70
2019-04-26T06:51:43.181Z,44.10
2019-04-26T06:54:21.564Z,43.50
2019-04-26T06:57:59.416Z,42.80
2019-04-26T07:00:43.533Z,42.10
2019-04-26T07:03:43.686Z,42.10
2019-04-26T07:06:34.591Z,41.50
2019-04-26T07:09:05.704Z,40.50
2019-04-26T07:12:47.014Z,39.70
2019-04-26T07:15:44.662Z,38.50
2019-04-26T07:18:48.174Z,37.00
2019-04-26T07:22:14.252Z,35.70
2019-04-26T07:25:38.892Z,34.50
2019-04-26T07:28:49.976Z,33.30
2019-04-26T07:31:52.517Z,33.20
2019-04-26T07:34:48.669Z,32.70
2019-04-26T07:37:51.064Z,32.50
2019-04-26T07:40:46.591Z,32.00
2019-04-26T07:43:53.918Z,32.30
2019-04-26T07:47:01.538Z,32.40
2019-04-26T07:50:19.508Z,31.70
2019-04-26T07:53:30.704Z,31.00
2019-04-26T07:56:14.605Z,31.30
2019-04-26T07:59:39.741Z,31.90
2019-04-26T08:02:54.330Z,32.70
2019-04-26T08:05:39.796Z,32.50
2019-04-26T08:08:14.979Z,31.80
2019-04-26T08:11:14.989Z,31.80
2019-04-26T08:14:14.739Z,31.60
2019-04-26T08:17:33.289Z,30.90
2019-04-26T08:20:32.110Z,31.10
2019-04-26T08:23:16.095Z,31.60
2019-04-26T08:25:43.416Z,31.80
2019-04-26T08:28:20.408Z,31.10
2019-04-26T08:30:55.397Z,31.10
2019-04-26T08:33:41.037Z,31.40
2019-04-26T08:36:14.742Z,31.70
2019-04-26T08:38:52.589Z,31.50
2019-04-26T08:41:25.088Z,31.30
2019-04-26T08:44:19.020Z,31.50
2019-04-26T08:47:06.017Z,31.50
2019-04-26T08:49:58.136Z,31.10
2019-04-26T08:52:33.588Z,30.90
2019-04-26T08:55:07.695Z,30.60
2019-04-26T08:57:42.616Z,30.20
2019-04-26T09:00:39.380Z,30.30
2019-04-26T09:03:27.204Z,30.20
2019-04-26T09:06:14.757Z,29.90
2019-04-26T09:08:49.461Z,29.70
2019-04-26T09:11:29.947Z,30.40
2019-04-26T09:13:58.565Z,30.00
2019-04-26T09:16:32.125Z,30.10
2019-04-26T09:19:04.305Z,30.20
2019-04-26T09:21:51.844Z,30.40
2019-04-26T09:24:45.472Z,30.60
2019-04-26T09:27:36.898Z,30.60
2019-04-26T09:30:18.390Z,30.80
2019-04-26T09:32:58.236Z,30.70
2019-04-26T09:35:29.280Z,30.90
2019-04-26T09:38:01.316Z,30.80
2019-04-26T09:40:33.352Z,30.50
2019-04-26T09:43:26.865Z,30.50
2019-04-26T09:46:25.702Z,30.80
2019-04-26T09:49:16.875Z,30.30
2019-04-26T09:51:48.912Z,29.80
2019-04-26T09:54:21.157Z,29.70
2019-04-26T09:56:53.558Z,29.70
2019-04-26T09:59:25.888Z,30.20
2019-04-26T10:01:59.417Z,31.40
2019-04-26T10:04:31.229Z,32.40
2019-04-26T10:07:04.185Z,33.20
2019-04-26T10:09:36.512Z,33.70
2019-04-26T10:12:17.553Z,34.30
2019-04-26T10:15:00.470Z,34.80
2019-04-26T10:17:33.660Z,34.90
2019-04-26T10:20:05.955Z,35.00
2019-04-26T10:22:38.591Z,35.20
2019-04-26T10:25:16.541Z,34.90
2019-04-26T10:27:45.222Z,34.50
2019-04-26T10:30:17.957Z,34.40
2019-04-26T10:32:50.642Z,34.60
2019-04-26T10:35:23.276Z,34.70
2019-04-26T10:37:55.345Z,34.80
2019-04-26T10:40:35.381Z,34.70
2019-04-26T10:43:01.141Z,34.40
2019-04-26T10:45:33.432Z,34.20
2019-04-26T10:48:09.562Z,34.00
2019-04-26T10:50:39.887Z,34.00
2019-04-26T10:53:38.430Z,34.00
2019-04-26T10:56:30.105Z,33.20
2019-04-26T10:59:33.599Z,33.20
2019-04-26T11:02:09.774Z,32.90
2019-04-26T11:04:42.891Z,32.60
2019-04-26T11:07:15.570Z,32.90
2019-04-26T11:09:47.594Z,33.50
2019-04-26T11:12:19.676Z,33.90
2019-04-26T11:14:53.426Z,34.10
2019-04-26T11:17:26.388Z,34.10
2019-04-26T11:19:58.605Z,34.20
2019-04-26T11:22:33.461Z,34.30
2019-04-26T11:25:04.534Z,35.20
2019-04-26T11:27:36.638Z,34.60
2019-04-26T11:30:12.232Z,34.40
2019-04-26T11:32:42.793Z,34.70
2019-04-26T11:35:15.276Z,35.00
2019-04-26T11:37:50.759Z,35.20
2019-04-26T11:40:22.306Z,35.30
2019-04-26T11:42:54.710Z,34.90
2019-04-26T11:45:26.384Z,34.50
2019-04-26T11:47:58.388Z,34.50
2019-04-26T11:50:31.260Z,34.60
2019-04-26T11:53:06.199Z,34.60
2019-04-26T11:55:37.189Z,34.50
2019-04-26T11:58:09.106Z,34.60
2019-04-26T12:00:46.651Z,34.50
2019-04-26T12:03:21.201Z,34.10
2019-04-26T12:05:58.844Z,33.30
2019-04-26T12:08:42.128Z,31.80
2019-04-26T12:11:18.978Z,31.70
2019-04-26T12:13:47.850Z,32.00
2019-04-26T12:16:20.644Z,32.20
2019-04-26T12:18:52.688Z,32.20
2019-04-26T12:21:25.045Z,32.20
2019-04-26T12:23:56.784Z,32.20
2019-04-26T12:26:28.799Z,31.80
2019-04-26T12:29:00.430Z,31.70
2019-04-26T12:31:32.731Z,31.70
2019-04-26T12:34:04.910Z,31.30
2019-04-26T12:36:36.774Z,31.30
2019-04-26T12:39:11.530Z,31.30
2019-04-26T12:41:43.802Z,31.40
2019-04-26T12:44:15.958Z,31.60
2019-04-26T12:47:03.446Z,31.40
2019-04-26T12:49:35.606Z,31.40
2019-04-26T12:52:08.431Z,31.20
2019-04-26T12:54:43.002Z,31.30
2019-04-26T12:57:16.295Z,31.40
2019-04-26T12:59:48.465Z,31.40
2019-04-26T13:02:21.867Z,31.50
2019-04-26T13:04:54.388Z,31.30
2019-04-26T13:07:26.439Z,31.40
2019-04-26T13:10:15.826Z,31.40
2019-04-26T13:12:58.509Z,31.40
2019-04-26T13:16:03.255Z,31.40
2019-04-26T13:18:35.297Z,31.50
2019-04-26T13:21:07.434Z,31.70
2019-04-26T13:23:39.474Z,32.10
2019-04-26T13:26:11.328Z,32.20
2019-04-26T13:28:43.591Z,32.40
2019-04-26T13:31:15.833Z,32.50
2019-04-26T13:33:47.897Z,32.70
2019-04-26T13:36:19.920Z,32.80
2019-04-26T13:38:51.993Z,32.90
2019-04-26T13:41:24.621Z,32.70
2019-04-26T13:43:57.229Z,32.50
2019-04-26T13:46:49.800Z,32.30
2019-04-26T13:49:48.293Z,32.50
2019-04-26T13:52:20.388Z,32.60
2019-04-26T13:54:55.522Z,32.90
2019-04-26T13:57:26.132Z,33.00
2019-04-26T14:00:02.431Z,33.10
2019-04-26T14:02:32.508Z,32.90
2019-04-26T14:05:04.348Z,32.80
2019-04-26T14:07:37.510Z,32.80
2019-04-26T14:10:09.648Z,32.70
2019-04-26T14:12:41.560Z,32.90
2019-04-26T14:15:13.622Z,32.90
2019-04-26T14:17:45.773Z,32.90
2019-04-26T14:20:19.203Z,33.40
2019-04-26T14:23:11.283Z,32.90
2019-04-26T14:25:56.306Z,33.10
2019-04-26T14:28:28.504Z,33.00
2019-04-26T14:31:01.966Z,33.10
2019-04-26T14:33:34.833Z,33.20
2019-04-26T14:36:17.089Z,33.50
2019-04-26T14:38:41.396Z,33.80
2019-04-26T14:41:22.012Z,33.80
2019-04-26T14:43:48.289Z,34.00
2019-04-26T14:46:22.902Z,33.90
2019-04-26T14:49:02.161Z,34.00
2019-04-26T14:51:29.133Z,34.00
2019-04-26T14:54:01.100Z,33.90
2019-04-26T14:56:33.141Z,33.70
2019-04-26T14:59:08.328Z,33.90
2019-04-26T15:02:06.280Z,33.90
2019-04-26T15:05:02.957Z,34.20
2019-04-26T15:07:35.055Z,34.30
2019-04-26T15:10:10.999Z,34.50
2019-04-26T15:12:47.012Z,34.40
2019-04-26T15:15:15.842Z,34.20
2019-04-26T15:17:47.842Z,34.20
2019-04-26T15:20:20.912Z,34.20
2019-04-26T15:22:53.374Z,34.30
2019-04-26T15:25:26.600Z,34.60
2019-04-26T15:27:58.625Z,34.80
2019-04-26T15:30:34.255Z,34.90
2019-04-26T15:33:08.641Z,34.90
2019-04-26T15:35:38.431Z,34.90
2019-04-26T15:38:10.716Z,35.10
2019-04-26T15:41:05.242Z,35.50
2019-04-26T15:44:16.256Z,35.60
2019-04-26T15:47:18.252Z,35.90
2019-04-26T15:50:05.592Z,36.10
2019-04-26T15:52:35.378Z,36.20
2019-04-26T15:55:07.875Z,36.30
2019-04-26T15:57:40.174Z,36.50
2019-04-26T16:00:12.597Z,36.80
2019-04-26T16:02:44.845Z,36.80
2019-04-26T16:05:16.929Z,36.90
2019-04-26T16:07:49.570Z,36.80
2019-04-26T16:10:25.628Z,36.70
2019-04-26T16:12:56.251Z,36.70
2019-04-26T16:15:28.524Z,36.70
2019-04-26T16:18:03.875Z,36.70
2019-04-26T16:20:38.057Z,36.90
2019-04-26T16:23:08.182Z,36.90
2019-04-26T16:25:40.182Z,37.10
2019-04-26T16:28:38.397Z,37.20
2019-04-26T16:31:27.008Z,37.20
2019-04-26T16:34:10.512Z,37.20
2019-04-26T16:36:42.197Z,37.20
2019-04-26T16:39:13.062Z,37.30
2019-04-26T16:41:45.392Z,37.40
2019-04-26T16:44:19.348Z,37.40
2019-04-26T16:46:53.913Z,37.20
2019-04-26T16:49:24.576Z,37.00
2019-04-26T16:54:30.726Z,37.10
2019-04-26T16:57:06.821Z,37.30
2019-04-26T16:59:36.206Z,37.40
2019-04-26T17:00:45.395Z,37.00
2019-04-26T17:02:08.051Z,37.70
2019-04-26T17:04:40.046Z,37.90
2019-04-26T17:07:13.454Z,37.80
2019-04-26T17:09:58.984Z,37.90
2019-04-26T17:12:20.057Z,38.00
2019-04-26T17:14:52.606Z,38.20
2019-04-26T17:17:24.748Z,38.30
2019-04-26T17:19:56.614Z,38.50
2019-04-26T17:22:51.631Z,38.90
2019-04-26T17:25:24.228Z,39.10
2019-04-26T17:27:55.474Z,39.30
2019-04-26T17:30:27.326Z,39.30
2019-04-26T17:32:59.346Z,39.40
2019-04-26T17:35:32.781Z,39.60
2019-04-26T17:38:05.237Z,39.90
2019-04-26T17:40:38.070Z,40.20
2019-04-26T17:43:11.464Z,40.60
2019-04-26T17:45:44.339Z,40.70
2019-04-26T17:48:16.335Z,40.90
2019-04-26T17:50:48.286Z,41.00
2019-04-26T17:53:30.782Z,41.30
2019-04-26T17:55:55.081Z,41.30
2019-04-26T17:58:31.150Z,41.60
2019-04-26T18:01:03.707Z,42.20
2019-04-26T18:03:35.013Z,42.20
2019-04-26T18:06:09.561Z,42.00
2019-04-26T18:08:47.550Z,42.10
2019-04-26T18:11:19.566Z,42.30
2019-04-26T18:13:51.210Z,42.50
2019-04-26T18:16:27.364Z,42.60
2019-04-26T18:19:05.103Z,42.70
2019-04-26T18:22:00.872Z,43.10
2019-04-26T18:24:34.985Z,43.20
2019-04-26T18:27:06.488Z,43.40
2019-04-26T18:29:39.052Z,44.20
2019-04-26T18:32:12.966Z,43.70
2019-04-26T18:34:45.318Z,43.90
2019-04-26T18:37:17.386Z,44.00
2019-04-26T18:39:49.708Z,44.20
2019-04-26T18:42:22.072Z,44.30
2019-04-26T18:44:56.015Z,44.50
2019-04-26T18:47:34.187Z,44.60
2019-04-26T18:50:06.520Z,44.70
2019-04-26T18:52:43.711Z,44.80
2019-04-26T18:55:29.033Z,45.00
2019-04-26T18:58:01.544Z,44.90
2019-04-26T19:00:35.704Z,44.80
2019-04-26T19:03:08.456Z,45.00
2019-04-26T19:05:40.484Z,44.90
2019-04-26T19:08:14.813Z,44.90
2019-04-26T19:10:58.279Z,44.80
2019-04-26T19:13:59.444Z,44.80
2019-04-26T19:16:59.185Z,44.80
2019-04-26T19:19:59.609Z,44.90
2019-04-26T19:22:32.182Z,45.10
2019-04-26T19:25:05.608Z,45.30
2019-04-26T19:27:47.427Z,45.60
2019-04-26T19:30:13.745Z,45.90
2019-04-26T19:32:45.996Z,46.10
2019-04-26T19:35:18.112Z,46.10
2019-04-26T19:37:51.654Z,46.30
2019-04-26T19:40:23.636Z,46.30
2019-04-26T19:42:57.511Z,46.30
2019-04-26T19:46:08.900Z,46.90
2019-04-26T19:49:19.294Z,46.20
2019-04-26T19:52:07.424Z,46.30
2019-04-26T19:54:46.817Z,46.40
2019-04-26T19:57:23.895Z,46.60
2019-04-26T19:59:56.140Z,46.90
2019-04-26T20:02:35.857Z,47.20
2019-04-26T20:05:06.446Z,47.40
2019-04-26T20:07:36.852Z,47.70
2019-04-26T20:10:08.854Z,47.80
2019-04-26T20:12:41.351Z,48.20
2019-04-26T20:15:25.422Z,48.50
2019-04-26T20:17:52.865Z,48.80
2019-04-26T20:20:23.231Z,48.80
2019-04-26T20:22:54.641Z,48.90
2019-04-26T20:25:29.740Z,48.90
2019-04-26T20:28:00.992Z,48.90
2019-04-26T20:30:52.167Z,48.80
2019-04-26T20:33:26.759Z,48.90
2019-04-26T20:36:03.300Z,49.00
2019-04-26T20:38:35.903Z,49.30
2019-04-26T20:41:05.208Z,49.50
2019-04-26T20:43:44.344Z,49.60
2019-04-26T20:46:15.152Z,49.80
2019-04-26T20:48:45.212Z,50.00
2019-04-26T20:51:18.340Z,50.00
2019-04-26T20:53:50.368Z,50.60
2019-04-26T20:56:22.620Z,50.10
2019-04-26T20:58:57.451Z,50.10
2019-04-26T21:01:28.691Z,50.20
2019-04-26T21:04:02.003Z,50.40
2019-04-26T21:06:36.930Z,50.50
2019-04-26T21:09:11.795Z,50.70
2019-04-26T21:11:43.811Z,50.50
2019-04-26T21:14:15.808Z,51.10
2019-04-26T21:16:49.407Z,51.30
2019-04-26T21:19:21.469Z,51.20
2019-04-26T21:21:54.400Z,51.30
2019-04-26T21:24:27.954Z,51.40
2019-04-26T21:27:30.134Z,52.10
2019-04-26T21:30:23.854Z,51.70
2019-04-26T21:33:08.242Z,51.80
2019-04-26T21:35:47.277Z,51.80
2019-04-26T21:38:49.359Z,51.90
2019-04-26T21:41:25.197Z,52.00
2019-04-26T21:43:56.979Z,52.10
2019-04-26T21:46:29.094Z,52.70
2019-04-26T21:49:00.981Z,52.10
2019-04-26T21:51:34.012Z,52.20
2019-04-26T21:54:06.222Z,52.40
2019-04-26T21:56:38.164Z,52.50
2019-04-26T21:59:09.995Z,52.90
2019-04-26T22:01:43.521Z,53.30
2019-04-26T22:04:15.420Z,53.60
2019-04-26T22:06:47.704Z,53.80
2019-04-26T22:09:46.894Z,54.10
2019-04-26T22:12:18.993Z,54.60
2019-04-26T22:15:00.751Z,55.20
2019-04-26T22:17:40.701Z,55.80
2019-04-26T22:20:28.519Z,56.30
2019-04-26T22:23:18.398Z,56.70
2019-04-26T22:25:52.112Z,57.20
2019-04-26T22:28:26.729Z,57.60
2019-04-26T22:30:59.276Z,57.90
2019-04-26T22:33:31.918Z,58.10
2019-04-26T22:36:05.107Z,58.20
2019-04-26T22:38:37.026Z,58.50
2019-04-26T22:41:08.965Z,59.00
2019-04-26T22:44:03.912Z,59.40
2019-04-26T22:47:03.525Z,59.70
2019-04-26T22:49:34.999Z,59.70
2019-04-26T22:52:11.262Z,59.70
2019-04-26T22:54:42.913Z,60.00
2019-04-26T22:57:16.193Z,60.20
2019-04-26T22:59:50.538Z,60.40
2019-04-26T23:02:25.383Z,60.80
2019-04-26T23:04:56.048Z,61.00
2019-04-26T23:07:28.952Z,61.60
2019-04-26T23:10:00.770Z,61.80
2019-04-26T23:12:51.307Z,61.90
2019-04-26T23:15:33.158Z,62.10
2019-04-26T23:18:43.876Z,62.60
2019-04-26T23:21:20.764Z,62.90
2019-04-26T23:23:53.463Z,63.10
2019-04-26T23:26:25.444Z,63.50
2019-04-26T23:28:57.062Z,64.00
2019-04-26T23:31:29.126Z,65.30
2019-04-26T23:34:02.853Z,65.00
2019-04-26T23:36:34.904Z,65.30
2019-04-26T23:39:11.668Z,65.40
2019-04-26T23:41:41.552Z,65.50
2019-04-26T23:44:14.858Z,65.70
2019-04-26T23:46:46.769Z,65.70
2019-04-26T23:49:19.326Z,65.60
2019-04-26T23:51:53.331Z,65.80
2019-04-26T23:54:28.091Z,65.90
2019-04-26T23:56:59.012Z,65.90
2019-04-26T23:59:31.037Z,66.00
